createdAt,value
2022-09-30T00:01:17.750Z,10.43
2022-09-30T00:03:48.252Z,10.43
2022-09-30T00:06:16.880Z,10.41
2022-09-30T00:08:44.947Z,10.40
2022-09-30T00:11:16.390Z,10.39
2022-09-30T00:13:45.830Z,10.36
2022-09-30T00:16:15.754Z,10.38
2022-09-30T00:18:44.660Z,10.27
2022-09-30T00:21:13.684Z,10.31
2022-09-30T00:23:41.708Z,10.35
2022-09-30T00:26:13.034Z,10.38
2022-09-30T00:28:43.891Z,10.38
2022-09-30T00:31:14.873Z,10.40
2022-09-30T00:33:43.328Z,10.40
2022-09-30T00:36:12.142Z,10.39
2022-09-30T00:38:40.114Z,10.40
2022-09-30T00:41:08.157Z,10.41
2022-09-30T00:43:43.312Z,10.39
2022-09-30T00:46:18.557Z,10.41
2022-09-30T00:48:47.503Z,10.38
2022-09-30T00:51:15.460Z,10.36
2022-09-30T00:54:10.340Z,10.35
2022-09-30T00:56:40.986Z,10.36
2022-09-30T00:59:13.505Z,10.34
2022-09-30T01:01:42.622Z,10.36
2022-09-30T01:04:13.232Z,10.36
2022-09-30T01:06:41.505Z,10.36
2022-09-30T01:09:09.968Z,10.36
2022-09-30T01:11:38.116Z,10.34
2022-09-30T01:14:07.787Z,10.35
2022-09-30T01:16:55.696Z,10.36
2022-09-30T01:19:48.848Z,10.35
2022-09-30T01:22:23.353Z,10.29
2022-09-30T01:25:33.897Z,10.32
2022-09-30T01:28:15.009Z,10.32
2022-09-30T01:30:56.764Z,10.33
2022-09-30T01:33:34.943Z,10.33
2022-09-30T01:36:28.623Z,10.34
2022-09-30T01:39:05.788Z,10.34
2022-09-30T01:41:42.317Z,10.34
2022-09-30T01:44:15.640Z,10.33
2022-09-30T01:46:47.708Z,10.34
2022-09-30T01:49:22.284Z,10.34
2022-09-30T01:51:57.066Z,10.34
2022-09-30T01:54:28.900Z,10.32
2022-09-30T01:57:00.232Z,10.32
2022-09-30T01:59:32.750Z,10.34
2022-09-30T02:02:08.305Z,10.33
2022-09-30T02:04:40.389Z,10.33
2022-09-30T02:07:12.284Z,10.35
2022-09-30T02:09:42.757Z,10.35
2022-09-30T02:12:15.116Z,10.36
2022-09-30T02:14:45.725Z,10.34
2022-09-30T02:17:24.544Z,10.36
2022-09-30T02:19:55.832Z,10.36
2022-09-30T02:22:27.200Z,10.37
2022-09-30T02:24:59.051Z,10.34
2022-09-30T02:27:30.421Z,10.33
2022-09-30T02:30:00.869Z,10.30
2022-09-30T02:32:32.964Z,10.21
2022-09-30T02:35:05.315Z,10.26
2022-09-30T02:37:35.877Z,10.29
2022-09-30T02:40:08.101Z,10.32
2022-09-30T02:42:36.132Z,10.30
2022-09-30T02:45:08.685Z,10.33
2022-09-30T02:47:47.280Z,10.25
2022-09-30T02:50:19.718Z,10.27
2022-09-30T02:52:54.713Z,10.29
2022-09-30T02:55:29.430Z,10.30
2022-09-30T02:58:01.401Z,10.30
2022-09-30T03:00:30.281Z,10.33
2022-09-30T03:03:01.137Z,10.33
2022-09-30T03:05:29.394Z,10.33
2022-09-30T03:07:57.770Z,10.34
2022-09-30T03:10:26.079Z,10.33
2022-09-30T03:13:07.231Z,10.34
2022-09-30T03:15:43.168Z,10.32
2022-09-30T03:18:24.733Z,10.33
2022-09-30T03:21:01.878Z,10.32
2022-09-30T03:23:43.931Z,10.29
2022-09-30T03:26:19.321Z,10.28
2022-09-30T03:28:54.343Z,10.28
2022-09-30T03:31:27.486Z,10.27
2022-09-30T03:34:01.424Z,10.29
2022-09-30T03:36:35.440Z,10.21
2022-09-30T03:39:09.289Z,10.23
2022-09-30T03:41:41.412Z,10.25
2022-09-30T03:44:12.981Z,10.26
2022-09-30T03:46:43.862Z,10.26
2022-09-30T03:49:15.688Z,10.28
2022-09-30T03:51:43.814Z,10.29
2022-09-30T03:54:13.653Z,10.28
2022-09-30T03:56:43.312Z,10.26
2022-09-30T03:59:13.516Z,10.24
2022-09-30T04:01:41.616Z,10.21
2022-09-30T04:04:09.877Z,10.23
2022-09-30T04:06:39.260Z,9.93
2022-09-30T04:09:07.306Z,10.07
2022-09-30T04:11:35.405Z,10.12
2022-09-30T04:14:03.798Z,10.18
2022-09-30T04:16:32.089Z,10.20
2022-09-30T04:19:00.384Z,10.20
2022-09-30T04:21:29.079Z,10.21
2022-09-30T04:23:58.519Z,10.21
2022-09-30T04:26:26.548Z,10.20
2022-09-30T04:28:58.145Z,10.19
2022-09-30T04:31:26.519Z,10.21
2022-09-30T04:33:57.006Z,10.22
2022-09-30T04:36:25.087Z,10.18
2022-09-30T04:38:53.574Z,10.15
2022-09-30T04:41:23.205Z,10.18
2022-09-30T04:43:51.215Z,10.16
2022-09-30T04:46:20.969Z,10.10
2022-09-30T04:48:48.997Z,9.97
2022-09-30T04:51:18.850Z,9.93
2022-09-30T04:53:47.757Z,9.86
2022-09-30T04:56:16.759Z,9.91
2022-09-30T04:58:46.854Z,9.95
2022-09-30T05:01:16.251Z,9.98
2022-09-30T05:03:44.828Z,10.01
2022-09-30T05:06:13.212Z,9.97
2022-09-30T05:08:45.692Z,9.99
2022-09-30T05:11:16.573Z,10.00
2022-09-30T05:13:46.474Z,10.03
2022-09-30T05:16:15.922Z,10.04
2022-09-30T05:18:46.228Z,10.02
2022-09-30T05:21:15.349Z,9.99
2022-09-30T05:23:43.541Z,9.97
2022-09-30T05:26:12.784Z,9.96
2022-09-30T05:28:41.183Z,9.96
2022-09-30T05:31:12.329Z,9.97
2022-09-30T05:33:41.811Z,9.98
2022-09-30T05:36:13.602Z,10.02
2022-09-30T05:38:41.838Z,10.03
2022-09-30T05:41:11.474Z,10.04
2022-09-30T05:43:40.417Z,10.02
2022-09-30T05:46:10.196Z,10.00
2022-09-30T05:48:38.198Z,10.03
2022-09-30T05:51:07.531Z,10.02
2022-09-30T05:53:38.682Z,9.99
2022-09-30T05:56:07.423Z,9.95
2022-09-30T05:58:35.582Z,9.95
2022-09-30T06:01:12.917Z,9.93
2022-09-30T06:03:42.968Z,9.97
2022-09-30T06:06:11.483Z,9.98
2022-09-30T06:08:40.333Z,10.02
2022-09-30T06:11:12.762Z,9.98
2022-09-30T06:13:41.523Z,10.00
2022-09-30T06:16:10.447Z,10.05
2022-09-30T06:18:41.131Z,10.08
2022-09-30T06:21:12.538Z,10.10
2022-09-30T06:24:09.389Z,10.12
2022-09-30T06:26:37.375Z,10.10
2022-09-30T06:29:05.404Z,10.14
2022-09-30T06:31:33.507Z,10.16
2022-09-30T06:34:02.346Z,10.20
2022-09-30T06:36:33.391Z,10.22
2022-09-30T06:39:01.960Z,10.20
2022-09-30T06:41:30.059Z,10.15
2022-09-30T06:44:02.526Z,10.17
2022-09-30T06:46:32.215Z,10.10
2022-09-30T06:49:11.264Z,10.09
2022-09-30T06:51:42.043Z,10.11
2022-09-30T06:54:10.334Z,10.17
2022-09-30T06:56:38.341Z,10.21
2022-09-30T06:59:07.108Z,10.26
2022-09-30T07:01:35.209Z,10.29
2022-09-30T07:04:09.335Z,10.32
2022-09-30T07:06:38.869Z,10.35
2022-09-30T07:09:09.247Z,10.29
2022-09-30T07:11:38.312Z,10.33
2022-09-30T07:14:06.525Z,10.39
2022-09-30T07:16:34.977Z,10.44
2022-09-30T07:19:03.317Z,10.45
2022-09-30T07:21:32.405Z,10.50
2022-09-30T07:24:01.120Z,10.54
2022-09-30T07:26:31.114Z,10.58
2022-09-30T07:29:00.099Z,10.63
2022-09-30T07:31:32.904Z,10.67
2022-09-30T07:34:02.036Z,10.69
2022-09-30T07:36:33.635Z,10.67
2022-09-30T07:39:05.848Z,10.63
2022-09-30T07:41:38.130Z,10.68
2022-09-30T07:44:06.802Z,10.60
2022-09-30T07:46:38.708Z,10.70
2022-09-30T07:49:09.037Z,10.75
2022-09-30T07:51:38.881Z,10.79
2022-09-30T07:54:08.813Z,10.75
2022-09-30T07:59:28.193Z,10.79
2022-09-30T08:01:56.435Z,10.79
2022-09-30T08:04:25.989Z,10.69
2022-09-30T08:06:55.911Z,10.81
2022-09-30T08:09:26.962Z,10.88
2022-09-30T08:11:57.125Z,10.94
2022-09-30T08:14:26.415Z,10.97
2022-09-30T08:16:55.862Z,11.00
2022-09-30T08:19:25.354Z,11.04
2022-09-30T08:21:54.287Z,11.06
2022-09-30T08:24:23.192Z,11.09
2022-09-30T08:26:51.378Z,11.02
2022-09-30T08:29:35.773Z,11.11
2022-09-30T08:32:09.039Z,11.17
2022-09-30T08:34:37.186Z,11.18
2022-09-30T08:37:09.219Z,11.21
2022-09-30T08:39:37.883Z,11.23
2022-09-30T08:42:35.977Z,11.21
2022-09-30T08:45:13.401Z,11.26
2022-09-30T08:47:45.227Z,11.21
2022-09-30T08:50:17.816Z,11.28
2022-09-30T08:52:49.583Z,11.31
2022-09-30T08:55:23.338Z,11.35
2022-09-30T08:57:52.004Z,11.39
2022-09-30T09:00:22.524Z,11.41
2022-09-30T09:02:53.776Z,11.41
2022-09-30T09:05:32.075Z,11.45
2022-09-30T09:08:04.127Z,11.51
2022-09-30T09:10:39.197Z,11.61
2022-09-30T09:13:14.417Z,11.67
2022-09-30T09:15:51.985Z,11.75
2022-09-30T09:18:29.988Z,11.74
2022-09-30T09:21:00.401Z,11.90
2022-09-30T09:23:31.264Z,11.99
2022-09-30T09:26:00.136Z,12.07
2022-09-30T09:28:36.961Z,12.14
2022-09-30T09:31:06.987Z,12.22
2022-09-30T09:33:37.406Z,12.30
2022-09-30T09:36:12.883Z,12.13
2022-09-30T09:38:52.118Z,12.26
2022-09-30T09:41:27.146Z,12.37
2022-09-30T09:44:00.476Z,12.46
2022-09-30T09:46:32.214Z,12.52
2022-09-30T09:49:30.122Z,12.55
2022-09-30T09:52:31.336Z,12.60
2022-09-30T09:55:00.883Z,12.65
2022-09-30T09:57:32.475Z,12.69
2022-09-30T10:00:22.526Z,12.70
2022-09-30T10:03:03.853Z,12.68
2022-09-30T10:05:39.411Z,12.78
2022-09-30T10:08:13.274Z,12.80
2022-09-30T10:10:49.642Z,12.83
2022-09-30T10:13:19.352Z,12.90
2022-09-30T10:15:47.908Z,12.94
2022-09-30T10:18:22.663Z,12.97
2022-09-30T10:20:53.602Z,13.06
2022-09-30T10:23:23.524Z,12.78
2022-09-30T10:25:59.969Z,12.85
2022-09-30T10:28:30.189Z,13.03
2022-09-30T10:31:08.907Z,13.18
2022-09-30T10:33:44.997Z,13.15
2022-09-30T10:36:16.406Z,13.28
2022-09-30T10:38:50.658Z,13.30
2022-09-30T10:41:24.292Z,13.39
2022-09-30T10:43:54.293Z,13.35
2022-09-30T10:46:27.259Z,13.47
2022-09-30T10:48:58.934Z,13.44
2022-09-30T10:51:34.015Z,13.45
2022-09-30T10:54:02.413Z,13.58
2022-09-30T10:56:44.627Z,13.61
2022-09-30T10:59:24.134Z,13.74
2022-09-30T11:01:57.607Z,13.89
2022-09-30T11:04:33.619Z,14.02
2022-09-30T11:07:11.379Z,14.07
2022-09-30T11:09:45.917Z,14.17
2022-09-30T11:12:20.303Z,14.07
2022-09-30T11:14:54.720Z,14.02
2022-09-30T11:17:33.669Z,14.12
2022-09-30T11:20:12.909Z,14.27
2022-09-30T11:22:47.008Z,14.36
2022-09-30T11:25:16.149Z,14.42
2022-09-30T11:27:59.481Z,14.46
2022-09-30T11:30:32.551Z,14.48
2022-09-30T11:33:15.873Z,14.32
2022-09-30T11:35:52.810Z,14.45
2022-09-30T11:38:32.195Z,14.49
2022-09-30T11:41:06.386Z,14.60
2022-09-30T11:43:41.528Z,14.63
2022-09-30T11:46:30.678Z,14.61
2022-09-30T11:49:14.385Z,14.49
2022-09-30T11:51:49.649Z,14.51
2022-09-30T11:54:28.562Z,14.65
2022-09-30T11:57:02.012Z,14.74
2022-09-30T11:59:35.266Z,14.87
2022-09-30T12:02:05.431Z,14.97
2022-09-30T12:04:37.054Z,14.97
2022-09-30T12:07:12.583Z,15.03
2022-09-30T12:09:44.269Z,14.95
2022-09-30T12:12:16.710Z,14.92
2022-09-30T12:14:47.936Z,14.87
2022-09-30T12:17:21.473Z,14.99
2022-09-30T12:19:52.067Z,14.99
2022-09-30T12:22:26.137Z,15.15
2022-09-30T12:24:54.164Z,15.23
2022-09-30T12:27:25.782Z,15.33
2022-09-30T12:30:17.182Z,15.32
2022-09-30T12:33:16.522Z,15.41
2022-09-30T12:36:10.976Z,15.55
2022-09-30T12:38:54.841Z,15.49
2022-09-30T12:41:35.376Z,15.60
2022-09-30T12:44:29.628Z,15.37
2022-09-30T12:47:11.649Z,15.50
2022-09-30T12:49:41.179Z,15.57
2022-09-30T12:52:14.592Z,15.57
2022-09-30T12:54:48.854Z,15.57
2022-09-30T12:57:20.780Z,15.48
2022-09-30T12:59:52.643Z,15.60
2022-09-30T13:02:30.250Z,15.63
2022-09-30T13:05:44.704Z,15.69
2022-09-30T13:08:25.950Z,15.49
2022-09-30T13:10:59.211Z,15.52
2022-09-30T13:13:30.586Z,15.46
2022-09-30T13:16:03.292Z,15.44
2022-09-30T13:18:59.755Z,15.52
2022-09-30T13:21:27.753Z,15.54
2022-09-30T13:23:56.954Z,15.55
2022-09-30T13:26:38.597Z,15.17
2022-09-30T13:29:29.994Z,15.39
2022-09-30T13:32:05.599Z,15.45
2022-09-30T13:34:36.464Z,15.46
2022-09-30T13:37:05.706Z,15.34
2022-09-30T13:39:45.612Z,15.46
2022-09-30T13:42:22.121Z,15.42
2022-09-30T13:45:00.839Z,15.27
2022-09-30T13:47:31.669Z,15.36
2022-09-30T13:50:03.232Z,15.26
2022-09-30T13:52:34.223Z,15.24
2022-09-30T13:55:07.932Z,15.30
2022-09-30T13:57:43.645Z,15.18
2022-09-30T14:00:15.186Z,15.20
2022-09-30T14:03:08.598Z,15.04
2022-09-30T14:05:54.095Z,15.06
2022-09-30T14:08:56.486Z,15.10
2022-09-30T14:11:41.191Z,15.04
2022-09-30T14:14:26.943Z,14.95
2022-09-30T14:17:30.114Z,14.91
2022-09-30T14:20:12.215Z,14.87
2022-09-30T14:22:41.910Z,14.89
2022-09-30T14:25:14.827Z,15.05
2022-09-30T14:28:04.408Z,15.09
2022-09-30T14:30:39.565Z,14.99
2022-09-30T14:33:11.657Z,14.92
2022-09-30T14:35:41.584Z,14.84
2022-09-30T14:38:15.784Z,15.01
2022-09-30T14:40:51.022Z,14.95
2022-09-30T14:43:44.708Z,14.77
2022-09-30T14:46:27.793Z,14.73
2022-09-30T14:48:58.958Z,14.87
2022-09-30T14:51:27.471Z,14.98
2022-09-30T14:53:56.936Z,15.02
2022-09-30T14:56:30.810Z,15.03
2022-09-30T14:59:00.934Z,15.04
2022-09-30T15:01:34.546Z,15.02
2022-09-30T15:04:04.730Z,15.03
2022-09-30T15:06:35.290Z,15.06
2022-09-30T15:09:06.482Z,15.03
2022-09-30T15:11:39.512Z,15.04
2022-09-30T15:14:10.220Z,14.98
2022-09-30T15:17:05.154Z,15.01
2022-09-30T15:19:35.338Z,15.04
2022-09-30T15:22:05.234Z,15.05
2022-09-30T15:24:33.905Z,15.10
2022-09-30T15:27:02.859Z,15.09
2022-09-30T15:29:31.035Z,15.11
2022-09-30T15:32:03.155Z,15.13
2022-09-30T15:34:31.775Z,15.15
2022-09-30T15:37:06.358Z,15.17
2022-09-30T15:39:54.470Z,15.16
2022-09-30T15:42:36.181Z,15.08
2022-09-30T15:45:06.443Z,14.96
2022-09-30T15:47:54.496Z,15.01
2022-09-30T15:50:37.582Z,15.03
2022-09-30T15:53:06.219Z,14.90
2022-09-30T15:55:43.153Z,14.94
2022-09-30T15:58:33.724Z,14.92
2022-09-30T16:01:26.834Z,14.76
2022-09-30T16:04:44.704Z,14.76
2022-09-30T16:07:18.025Z,14.77
2022-09-30T16:09:48.870Z,14.76
2022-09-30T16:12:19.661Z,14.72
2022-09-30T16:14:50.033Z,14.67
2022-09-30T16:17:19.982Z,14.66
2022-09-30T16:19:52.126Z,14.64
2022-09-30T16:22:52.485Z,14.59
2022-09-30T16:25:23.441Z,14.56
2022-09-30T16:27:57.783Z,14.57
2022-09-30T16:30:26.287Z,14.53
2022-09-30T16:32:58.177Z,14.49
2022-09-30T16:35:28.164Z,14.48
2022-09-30T16:38:02.413Z,14.45
2022-09-30T16:40:32.467Z,14.41
2022-09-30T16:43:03.252Z,14.39
2022-09-30T16:45:33.886Z,14.37
2022-09-30T16:48:02.991Z,14.36
2022-09-30T16:50:35.007Z,14.33
2022-09-30T16:53:04.410Z,14.32
2022-09-30T16:55:32.870Z,14.31
2022-09-30T16:58:00.939Z,14.26
2022-09-30T17:00:29.944Z,14.23
2022-09-30T17:02:58.096Z,14.20
2022-09-30T17:05:27.619Z,14.18
2022-09-30T17:07:57.071Z,14.15
2022-09-30T17:10:29.113Z,14.12
2022-09-30T17:12:57.578Z,14.07
2022-09-30T17:15:25.667Z,14.06
2022-09-30T17:17:54.041Z,14.03
2022-09-30T17:20:23.285Z,14.00
2022-09-30T17:22:51.807Z,14.00
2022-09-30T17:25:20.163Z,13.98
2022-09-30T17:27:51.061Z,13.96
2022-09-30T17:30:19.625Z,13.94
2022-09-30T17:32:47.982Z,13.93
2022-09-30T17:35:16.780Z,13.88
2022-09-30T17:37:46.534Z,13.86
2022-09-30T17:40:32.882Z,13.83
2022-09-30T17:43:14.160Z,13.77
2022-09-30T17:45:44.499Z,13.73
2022-09-30T17:48:13.530Z,13.67
2022-09-30T17:50:44.264Z,13.64
2022-09-30T17:53:14.186Z,13.61
2022-09-30T17:55:42.278Z,13.59
2022-09-30T17:58:12.387Z,13.57
2022-09-30T18:00:40.460Z,13.55
2022-09-30T18:03:08.846Z,13.52
2022-09-30T18:05:37.206Z,13.48
2022-09-30T18:08:05.642Z,13.47
2022-09-30T18:10:33.737Z,13.44
2022-09-30T18:13:01.704Z,13.32
2022-09-30T18:15:31.185Z,13.30
2022-09-30T18:17:59.200Z,13.25
2022-09-30T18:20:27.213Z,13.23
2022-09-30T18:22:55.213Z,13.23
2022-09-30T18:25:23.825Z,13.19
2022-09-30T18:27:53.631Z,13.19
2022-09-30T18:30:21.788Z,13.16
2022-09-30T18:32:52.701Z,13.13
2022-09-30T18:35:22.742Z,13.12
2022-09-30T18:37:51.552Z,13.09
2022-09-30T18:40:21.581Z,13.06
2022-09-30T18:42:49.966Z,13.03
2022-09-30T18:45:18.548Z,12.99
2022-09-30T18:47:46.589Z,12.98
2022-09-30T18:50:17.988Z,12.96
2022-09-30T18:52:46.078Z,12.95
2022-09-30T18:55:14.152Z,12.92
2022-09-30T18:57:42.236Z,12.89
2022-09-30T19:00:11.436Z,12.87
2022-09-30T19:02:40.762Z,12.86
2022-09-30T19:05:09.396Z,12.81
2022-09-30T19:07:39.492Z,12.80
2022-09-30T19:10:09.165Z,12.77
2022-09-30T19:12:38.758Z,12.77
2022-09-30T19:15:08.991Z,12.76
2022-09-30T19:17:37.530Z,12.74
2022-09-30T19:20:06.905Z,12.74
2022-09-30T19:22:37.258Z,12.69
2022-09-30T19:25:07.878Z,12.67
2022-09-30T19:27:37.720Z,12.60
2022-09-30T19:30:06.820Z,12.49
2022-09-30T19:32:35.109Z,12.49
2022-09-30T19:35:06.458Z,12.52
2022-09-30T19:37:35.386Z,12.55
2022-09-30T19:40:19.030Z,12.57
2022-09-30T19:42:49.644Z,12.50
2022-09-30T19:45:22.794Z,12.49
2022-09-30T19:47:52.590Z,12.52
2022-09-30T19:50:20.616Z,12.54
2022-09-30T19:52:57.080Z,12.53
2022-09-30T19:55:27.597Z,12.53
2022-09-30T19:57:55.739Z,12.53
2022-09-30T20:00:24.154Z,12.52
2022-09-30T20:02:52.663Z,12.52
2022-09-30T20:05:21.562Z,12.45
2022-09-30T20:07:51.250Z,12.47
2022-09-30T20:10:19.785Z,12.47
2022-09-30T20:12:49.143Z,12.46
2022-09-30T20:15:35.007Z,12.44
2022-09-30T20:18:03.020Z,12.34
2022-09-30T20:20:37.281Z,12.34
2022-09-30T20:23:05.476Z,12.24
2022-09-30T20:25:35.295Z,12.30
2022-09-30T20:28:05.483Z,12.31
2022-09-30T20:30:34.070Z,12.32
2022-09-30T20:33:02.505Z,12.32
2022-09-30T20:35:30.546Z,12.34
2022-09-30T20:37:58.730Z,12.35
2022-09-30T20:40:26.910Z,12.35
2022-09-30T20:43:01.449Z,12.34
2022-09-30T20:45:31.496Z,12.05
2022-09-30T20:47:59.624Z,12.17
2022-09-30T20:50:36.419Z,12.22
2022-09-30T20:53:06.428Z,12.24
2022-09-30T20:55:35.982Z,12.26
2022-09-30T20:58:04.235Z,12.27
2022-09-30T21:00:34.488Z,12.24
2022-09-30T21:03:02.529Z,12.22
2022-09-30T21:05:31.943Z,12.17
2022-09-30T21:08:00.578Z,12.16
2022-09-30T21:10:29.743Z,12.19
2022-09-30T21:12:59.037Z,12.22
2022-09-30T21:15:27.754Z,12.23
2022-09-30T21:17:57.278Z,12.25
2022-09-30T21:20:25.544Z,12.23
2022-09-30T21:22:53.847Z,12.23
2022-09-30T21:25:21.996Z,12.24
2022-09-30T21:27:50.126Z,12.15
2022-09-30T21:30:19.263Z,12.19
2022-09-30T21:32:48.825Z,12.21
2022-09-30T21:35:18.352Z,12.22
2022-09-30T21:37:49.594Z,12.23
2022-09-30T21:40:18.996Z,12.21
2022-09-30T21:42:46.958Z,12.21
2022-09-30T21:45:15.089Z,12.22
2022-09-30T21:47:43.082Z,12.22
2022-09-30T21:50:11.239Z,12.23
2022-09-30T21:52:40.599Z,12.23
2022-09-30T21:55:11.826Z,12.23
2022-09-30T21:57:40.112Z,12.22
2022-09-30T22:00:09.045Z,12.23
2022-09-30T22:02:41.943Z,12.22
2022-09-30T22:05:10.325Z,12.08
2022-09-30T22:07:38.834Z,12.12
2022-09-30T22:10:09.607Z,12.15
2022-09-30T22:12:38.234Z,12.17
2022-09-30T22:15:07.147Z,12.19
2022-09-30T22:17:35.185Z,12.20
2022-09-30T22:20:03.256Z,12.20
2022-09-30T22:22:31.273Z,12.19
2022-09-30T22:24:59.273Z,12.20
2022-09-30T22:27:28.700Z,12.20
2022-09-30T22:29:56.661Z,12.19
2022-09-30T22:32:24.816Z,12.20
2022-09-30T22:35:10.439Z,12.20
2022-09-30T22:38:01.177Z,12.19
2022-09-30T22:40:29.221Z,12.21
2022-09-30T22:42:58.530Z,12.21
2022-09-30T22:45:26.529Z,12.21
2022-09-30T22:47:56.804Z,12.18
2022-09-30T22:50:26.072Z,12.19
2022-09-30T22:52:54.042Z,12.19
2022-09-30T22:55:22.255Z,12.17
2022-09-30T22:57:50.213Z,12.04
2022-09-30T23:00:19.568Z,12.11
2022-09-30T23:02:48.326Z,12.12
2022-09-30T23:05:16.583Z,12.13
2022-09-30T23:07:44.599Z,12.13
2022-09-30T23:10:12.684Z,12.13
2022-09-30T23:12:41.006Z,12.08
2022-09-30T23:15:09.586Z,12.04
2022-09-30T23:17:39.005Z,12.03
2022-09-30T23:20:08.565Z,11.99
2022-09-30T23:22:36.526Z,11.98
2022-09-30T23:25:04.817Z,11.97
2022-09-30T23:27:58.277Z,11.92
2022-09-30T23:30:26.832Z,11.90
2022-09-30T23:32:56.257Z,11.87
2022-09-30T23:35:24.248Z,11.84
2022-09-30T23:37:52.951Z,11.82
2022-09-30T23:40:20.963Z,11.82
2022-09-30T23:42:50.413Z,11.81
2022-09-30T23:45:18.368Z,11.78
2022-09-30T23:47:48.363Z,11.78
2022-09-30T23:50:17.815Z,11.77
2022-09-30T23:52:45.769Z,11.76
2022-09-30T23:55:16.839Z,11.75
2022-09-30T23:57:46.866Z,11.74
